Time;durP1;ratioP1;P1;durP2;ratioP2;P2;SDS_P1;SDS_P2;PMS_P1;PMS_P2;Temp;Humidity;BMP_temperature;BMP_pressure;BME280_temperature;BME280_humidity;BME280_pressure;Samples;Min_cycle;Max_cycle;Signal;HPM_P1;HPM_P2
2023/09/09 00:02:30;;;;;;;13.25;11.23;;;17.20;14.30;;;;;;6253604;22;20020;-92
2023/09/09 00:05:18;;;;;;;14.95;10.23;;;17.20;1.00;;;;;;6251605;23;20433;-93
2023/09/09 00:08:11;;;;;;;14.10;11.65;;;17.20;99.90;;;;;;6254136;23;20024;-94
2023/09/09 00:11:00;;;;;;;14.85;11.00;;;17.20;99.90;;;;;;6252822;23;20086;-93
2023/09/09 00:13:56;;;;;;;15.50;12.13;;;17.20;99.90;;;;;;6255820;23;20032;-93
2023/09/09 00:17:01;;;;;;;15.60;11.50;;;17.10;99.90;;;;;;6253956;23;20099;-93
2023/09/09 00:19:53;;;;;;;15.05;12.00;;;17.00;99.90;;;;;;6252681;23;20024;-91
2023/09/09 00:22:44;;;;;;;14.32;11.90;;;17.00;1.00;;;;;;6253067;23;20071;-94
2023/09/09 00:25:31;;;;;;;14.63;11.80;;;16.90;99.90;;;;;;6229024;23;20024;-94
2023/09/09 00:28:20;;;;;;;14.55;11.63;;;16.80;1.00;;;;;;6252517;23;20024;-94
2023/09/09 00:31:07;;;;;;;18.67;11.57;;;16.80;99.90;;;;;;6251170;23;20024;-94
2023/09/09 00:33:56;;;;;;;18.10;12.80;;;16.90;99.90;;;;;;6254271;23;20119;-92
2023/09/09 00:36:55;;;;;;;;;;;;;;;;;;;;;
2023/09/09 00:39:45;;;;;;;14.90;11.85;;;17.10;1.00;;;;;;6255772;22;20023;-95
2023/09/09 00:42:32;;;;;;;15.10;11.68;;;17.00;99.90;;;;;;6254636;22;20075;-94
2023/09/09 00:45:25;;;;;;;14.60;11.35;;;16.90;1.00;;;;;;6252481;23;20021;-92
2023/09/09 00:48:12;;;;;;;17.20;11.63;;;16.90;99.90;;;;;;6255079;23;20078;-93
2023/09/09 00:51:00;;;;;;;15.43;12.10;;;16.80;99.90;;;;;;6251303;23;20366;-92
2023/09/09 00:53:48;;;;;;;14.52;11.95;;;16.80;99.90;;;;;;6254025;23;20031;-94
2023/09/09 00:56:41;;;;;;;14.07;11.57;;;16.70;1.00;;;;;;6253127;23;20024;-93
2023/09/09 00:59:33;;;;;;;17.08;11.95;;;16.70;1.00;;;;;;6249805;23;20035;-93
2023/09/09 01:02:25;;;;;;;19.20;12.50;;;16.60;1.00;;;;;;6249977;23;20048;-93
2023/09/09 01:05:15;;;;;;;;;;;16.50;92.50;;;;;;6250702;23;20027;-91
2023/09/09 01:08:04;;;;;;;14.38;12.00;;;16.40;99.90;;;;;;6228695;23;20014;-95
2023/09/09 01:10:53;;;;;;;15.18;12.90;;;16.30;99.90;;;;;;6252994;23;20086;-93
2023/09/09 01:13:41;;;;;;;17.60;12.93;;;16.30;99.90;;;;;;6252226;23;20331;-94
2023/09/09 01:16:30;;;;;;;14.25;12.55;;;16.30;99.90;;;;;;6250358;23;20031;-93
2023/09/09 01:19:23;;;;;;;18.20;13.50;;;16.30;99.90;;;;;;6228340;23;20028;-92
2023/09/09 01:22:18;;;;;;;20.25;13.70;;;16.30;99.90;;;;;;6252883;23;20142;-94
2023/09/09 01:25:06;;;;;;;15.25;13.00;;;16.40;99.90;;;;;;6255747;23;20027;-93
2023/09/09 01:27:54;;;;;;;21.50;13.90;;;16.40;99.90;;;;;;6264467;23;20048;-94
2023/09/09 01:30:42;;;;;;;16.73;13.60;;;16.40;99.90;;;;;;6258294;23;20048;-93
2023/09/09 01:33:29;;;;;;;17.65;14.00;;;16.40;99.90;;;;;;6253947;23;20027;-93
2023/09/09 01:36:19;;;;;;;16.77;13.13;;;16.30;99.90;;;;;;6253373;23;20111;-93
2023/09/09 01:39:13;;;;;;;16.08;13.27;;;16.20;99.90;;;;;;6251194;23;20024;-92
2023/09/09 01:42:00;;;;;;;16.10;13.38;;;16.30;99.90;;;;;;6252887;23;20024;-94
2023/09/09 01:44:48;;;;;;;16.05;13.85;;;16.30;99.90;;;;;;6253189;23;20031;-94
2023/09/09 01:47:35;;;;;;;16.17;13.52;;;16.40;99.90;;;;;;6251241;23;20067;-92
2023/09/09 01:50:22;;;;;;;15.95;13.75;;;16.40;99.90;;;;;;6254991;22;20024;-94
2023/09/09 01:53:15;;;;;;;15.55;13.60;;;16.40;99.90;;;;;;6250113;23;20028;-92
2023/09/09 01:56:02;;;;;;;14.25;12.60;;;16.30;99.90;;;;;;6250981;23;20028;-93
2023/09/09 01:58:50;;;;;;;17.23;12.63;;;16.30;99.90;;;;;;6252662;23;20072;-93
2023/09/09 02:01:37;;;;;;;16.98;13.20;;;16.20;99.90;;;;;;6255251;22;20474;-93
2023/09/09 02:04:26;;;;;;;19.08;13.23;;;16.20;99.90;;;;;;6252885;23;20028;-91
2023/09/09 02:07:17;;;;;;;23.75;14.88;;;16.10;99.90;;;;;;6253496;23;20035;-93
2023/09/09 02:10:05;;;;;;;18.73;14.73;;;16.00;99.90;;;;;;6255452;22;20020;-93
2023/09/09 02:12:59;;;;;;;20.02;14.48;;;16.10;99.90;;;;;;6232410;23;20100;-93
2023/09/09 02:15:46;;;;;;;16.58;13.73;;;16.10;99.90;;;;;;6251782;23;20052;-90
2023/09/09 02:18:37;;;;;;;17.65;13.88;;;16.00;99.90;;;;;;6251612;23;20028;-92
2023/09/09 02:21:25;;;;;;;18.30;13.60;;;16.00;99.90;;;;;;6253258;23;20035;-93
2023/09/09 02:24:16;;;;;;;17.70;13.95;;;16.00;99.90;;;;;;6252104;23;20031;-92
2023/09/09 02:27:04;;;;;;;21.58;16.48;;;16.00;99.90;;;;;;6228279;23;20030;-94
2023/09/09 02:29:54;;;;;;;19.15;15.90;;;15.90;99.90;;;;;;6254107;22;20032;-93
2023/09/09 02:32:43;;;;;;;21.45;15.73;;;15.90;99.90;;;;;;6252770;23;20024;-93
2023/09/09 02:35:31;;;;;;;16.98;14.43;;;15.90;99.90;;;;;;6254797;22;20513;-91
2023/09/09 02:38:19;;;;;;;20.45;16.27;;;15.80;99.90;;;;;;6253353;22;20024;-94
2023/09/09 02:41:06;;;;;;;16.70;14.40;;;15.80;99.90;;;;;;6250106;23;20024;-95
2023/09/09 02:43:54;;;;;;;18.10;14.88;;;15.80;99.90;;;;;;6252262;23;20024;-95
2023/09/09 02:46:44;;;;;;;16.67;14.50;;;15.80;99.90;;;;;;6254467;23;20020;-93
2023/09/09 02:49:31;;;;;;;20.13;16.58;;;15.80;99.90;;;;;;6251358;23;20051;-93
2023/09/09 02:52:21;;;;;;;23.05;15.70;;;15.80;99.90;;;;;;6251125;23;20099;-93
2023/09/09 02:55:12;;;;;;;24.13;16.10;;;15.80;99.90;;;;;;6229013;23;20051;-93
2023/09/09 02:57:59;;;;;;;18.05;15.15;;;15.80;99.90;;;;;;6254279;23;20048;-94
2023/09/09 03:00:49;;;;;;;21.90;15.48;;;15.80;99.90;;;;;;6257653;22;20020;-92
2023/09/09 03:03:36;;;;;;;21.02;15.35;;;15.90;99.90;;;;;;6260802;23;20367;-93
2023/09/09 03:06:24;;;;;;;21.23;15.18;;;15.80;99.90;;;;;;6266472;23;20423;-92
2023/09/09 03:09:15;;;;;;;17.73;13.93;;;15.80;99.90;;;;;;6267044;23;20031;-86
2023/09/09 03:12:10;;;;;;;19.25;14.60;;;15.80;99.90;;;;;;6271086;22;20012;-86
2023/09/09 03:14:58;;;;;;;16.77;14.18;;;15.80;99.90;;;;;;6272163;22;20031;-90
2023/09/09 03:17:45;;;;;;;21.20;16.13;;;15.80;99.90;;;;;;6264157;23;20020;-90
2023/09/09 03:20:32;;;;;;;19.63;16.02;;;15.70;99.90;;;;;;6265320;23;20126;-91
2023/09/09 03:23:20;;;;;;;21.05;14.85;;;15.70;99.90;;;;;;6249017;23;20080;-91
2023/09/09 03:26:09;;;;;;;21.95;15.80;;;15.70;99.90;;;;;;6235765;23;20055;-94
2023/09/09 03:29:11;;;;;;;23.35;15.40;;;15.70;99.90;;;;;;6256906;22;20095;-93
2023/09/09 03:32:02;;;;;;;22.38;16.23;;;15.70;99.90;;;;;;6256205;23;20133;-93
2023/09/09 03:34:53;;;;;;;18.35;15.52;;;15.60;99.90;;;;;;6252872;23;20024;-92
2023/09/09 03:37:41;;;;;;;19.55;16.27;;;15.60;99.90;;;;;;6248225;23;20099;-93
2023/09/09 03:40:28;;;;;;;19.13;14.75;;;15.60;99.90;;;;;;6250725;23;20028;-93
2023/09/09 03:43:19;;;;;;;21.48;16.33;;;15.60;99.90;;;;;;6253069;23;20024;-93
2023/09/09 03:46:06;;;;;;;19.92;16.85;;;15.60;99.90;;;;;;6252336;23;20024;-93
2023/09/09 03:48:54;;;;;;;21.88;16.05;;;15.50;99.90;;;;;;6252755;23;20030;-92
2023/09/09 03:51:41;;;;;;;22.15;16.52;;;15.50;99.90;;;;;;6249668;23;20024;-93
2023/09/09 03:54:30;;;;;;;24.00;17.58;;;15.50;99.90;;;;;;6259765;22;20078;-93
2023/09/09 03:57:17;;;;;;;21.30;16.67;;;15.50;99.90;;;;;;6241851;23;20024;-91
2023/09/09 04:00:09;;;;;;;20.92;17.17;;;15.50;99.90;;;;;;6263376;23;20675;-92
2023/09/09 04:03:16;;;;;;;21.25;17.73;;;15.60;99.90;;;;;;6253612;23;20087;-93
2023/09/09 04:06:06;;;;;;;20.08;16.63;;;15.50;99.90;;;;;;6229309;23;20020;-93
2023/09/09 04:08:56;;;;;;;22.95;17.90;;;15.50;99.90;;;;;;6251381;23;20122;-94
2023/09/09 04:11:44;;;;;;;24.70;17.60;;;15.50;99.90;;;;;;6247906;23;20024;-92
2023/09/09 04:14:31;;;;;;;21.08;17.63;;;15.50;99.90;;;;;;6249205;23;20099;-94
2023/09/09 04:17:22;;;;;;;23.05;18.55;;;15.50;99.90;;;;;;6250607;23;20319;-93
2023/09/09 04:20:10;;;;;;;26.75;18.35;;;15.50;99.90;;;;;;6226883;23;20024;-93
2023/09/09 04:22:58;;;;;;;26.42;21.05;;;15.50;99.90;;;;;;6248523;23;20020;-92
2023/09/09 04:25:46;;;;;;;25.25;20.60;;;15.60;99.90;;;;;;6247891;23;20024;-93
2023/09/09 04:28:33;;;;;;;25.58;20.65;;;15.60;99.90;;;;;;6252290;22;20327;-93
2023/09/09 04:31:21;;;;;;;27.42;20.98;;;15.60;99.90;;;;;;6250394;23;20024;-93
2023/09/09 04:34:10;;;;;;;25.25;21.40;;;15.70;99.90;;;;;;6252104;23;20107;-93
2023/09/09 04:36:58;;;;;;;28.65;21.42;;;15.80;99.90;;;;;;6250861;23;20085;-93
2023/09/09 04:39:48;;;;;;;25.02;21.38;;;15.80;99.90;;;;;;6251110;23;20024;-94
2023/09/09 04:42:35;;;;;;;28.02;21.00;;;15.90;99.90;;;;;;6252916;23;20032;-93
2023/09/09 04:45:25;;;;;;;24.52;20.23;;;15.80;99.90;;;;;;6252249;23;20608;-92
2023/09/09 04:48:13;;;;;;;22.52;18.67;;;15.80;99.90;;;;;;6252909;23;20028;-92
2023/09/09 04:51:02;;;;;;;26.20;21.42;;;15.70;99.90;;;;;;6252535;23;20055;-94
2023/09/09 04:53:52;;;;;;;29.83;21.10;;;15.70;99.90;;;;;;6251746;23;20062;-92
2023/09/09 04:57:02;;;;;;;24.08;19.77;;;15.70;99.90;;;;;;6259722;23;20024;-94
2023/09/09 04:59:51;;;;;;;27.63;20.73;;;15.60;99.90;;;;;;6243290;23;20055;-92
2023/09/09 05:02:40;;;;;;;26.77;22.05;;;15.50;99.90;;;;;;6262721;23;20031;-93
2023/09/09 05:05:41;;;;;;;;;;;;;;;;;;;;;
2023/09/09 05:08:29;;;;;;;34.38;22.67;;;15.50;99.90;;;;;;6263088;23;20067;-91
2023/09/09 05:11:20;;;;;;;26.15;21.90;;;15.50;99.90;;;;;;6264206;23;20008;-90
2023/09/09 05:14:09;;;;;;;24.98;20.45;;;15.50;99.90;;;;;;6248836;23;20047;-89
2023/09/09 05:16:57;;;;;;;28.05;20.95;;;15.40;99.90;;;;;;6271808;23;20059;-88
2023/09/09 05:19:47;;;;;;;26.75;22.45;;;15.40;99.90;;;;;;6268198;23;20020;-91
2023/09/09 05:22:34;;;;;;;26.98;21.48;;;15.40;99.90;;;;;;6256778;23;20063;-93
2023/09/09 05:25:24;;;;;;;25.73;20.60;;;15.50;99.90;;;;;;6255496;23;20099;-93
2023/09/09 05:28:19;;;;;;;28.45;22.75;;;15.50;99.90;;;;;;6253423;23;20031;-94
2023/09/09 05:31:06;;;;;;;31.27;23.15;;;15.50;99.90;;;;;;6253338;23;20020;-93
2023/09/09 05:33:56;;;;;;;28.73;21.42;;;15.70;99.90;;;;;;6254485;23;20517;-93
2023/09/09 05:36:43;;;;;;;34.38;28.60;;;15.70;99.90;;;;;;6255625;23;20404;-91
2023/09/09 05:39:31;;;;;;;53.17;37.70;;;15.90;99.90;;;;;;6254107;23;20060;-92
2023/09/09 05:42:19;;;;;;;69.90;48.83;;;15.90;99.90;;;;;;6254166;23;20020;-93
2023/09/09 05:45:29;;;;;;;26.20;20.52;;;15.90;99.90;;;;;;6259109;23;20020;-93
2023/09/09 05:48:17;;;;;;;24.35;20.52;;;16.00;99.90;;;;;;6233557;23;20028;-92
2023/09/09 05:51:05;;;;;;;23.83;20.45;;;16.10;99.90;;;;;;6256861;23;20026;-93
2023/09/09 05:54:03;;;;;;;26.30;21.75;;;16.30;99.90;;;;;;6239253;23;20475;-93
2023/09/09 05:57:11;;;;;;;27.25;19.88;;;16.40;99.90;;;;;;6240770;23;20075;-93
2023/09/09 06:00:04;;;;;;;20.80;18.35;;;16.60;99.90;;;;;;6255163;23;20028;-94
2023/09/09 06:02:52;;;;;;;21.42;18.00;;;16.70;99.90;;;;;;6235316;23;20028;-94
2023/09/09 06:05:39;;;;;;;21.70;17.30;;;16.80;99.90;;;;;;6232368;23;20116;-91
2023/09/09 06:08:32;;;;;;;27.50;18.58;;;17.00;99.90;;;;;;6253889;23;20024;-92
2023/09/09 06:11:25;;;;;;;20.92;16.25;;;17.10;99.90;;;;;;6234337;23;20028;-92
2023/09/09 06:14:15;;;;;;;18.67;16.13;;;17.10;99.90;;;;;;6237318;23;20027;-94
2023/09/09 06:17:02;;;;;;;17.42;15.48;;;17.20;99.90;;;;;;6255304;23;20035;-93
2023/09/09 06:19:51;;;;;;;18.60;16.42;;;17.30;99.90;;;;;;6257387;23;20023;-94
2023/09/09 06:22:38;;;;;;;17.38;15.32;;;17.40;99.90;;;;;;6254694;23;20411;-93
2023/09/09 06:25:26;;;;;;;21.92;15.70;;;17.50;99.90;;;;;;6258015;23;20016;-94
2023/09/09 06:28:51;;;;;;;19.92;15.57;;;17.60;99.90;;;;;;6256171;23;20039;-93
2023/09/09 06:31:46;;;;;;;21.33;15.60;;;17.60;99.90;;;;;;6262366;23;20050;-90
2023/09/09 06:34:37;;;;;;;18.48;16.15;;;17.80;99.90;;;;;;6268084;22;20020;-90
2023/09/09 06:37:25;;;;;;;18.17;15.27;;;17.80;8.80;;;;;;6234544;23;20114;-93
2023/09/09 06:40:14;;;;;;;21.15;16.52;;;17.90;1.00;;;;;;6252926;23;20336;-93
2023/09/09 06:43:01;;;;;;;21.38;15.90;;;18.00;1.00;;;;;;6251624;23;20026;-94
2023/09/09 06:46:12;;;;;;;21.80;14.60;;;18.10;99.90;;;;;;6251854;23;20063;-93
2023/09/09 06:49:17;;;;;;;17.95;13.55;;;18.30;99.90;;;;;;6253807;22;20179;-93
2023/09/09 06:52:05;;;;;;;14.80;13.10;;;18.60;1.00;;;;;;6251554;23;20086;-92
2023/09/09 06:54:53;;;;;;;16.88;14.38;;;18.70;99.90;;;;;;6232538;23;20024;-93
2023/09/09 06:57:40;;;;;;;15.65;13.82;;;18.90;1.00;;;;;;6250718;23;20107;-93
2023/09/09 07:00:28;;;;;;;17.02;13.38;;;18.90;99.90;;;;;;6249503;23;20028;-92
2023/09/09 07:03:18;;;;;;;17.50;13.10;;;19.10;99.90;;;;;;6251385;23;20030;-92
2023/09/09 07:06:06;;;;;;;15.80;11.70;;;19.20;1.00;;;;;;6252361;23;20092;-94
2023/09/09 07:08:56;;;;;;;12.70;11.13;;;19.50;99.90;;;;;;6234811;23;20020;-93
2023/09/09 07:11:43;;;;;;;18.67;10.75;;;19.70;99.90;;;;;;6250856;23;20055;-94
2023/09/09 07:14:36;;;;;;;15.57;11.27;;;20.00;1.00;;;;;;6248674;23;20034;-94
2023/09/09 07:17:28;;;;;;;12.35;10.73;;;20.10;99.90;;;;;;6248319;23;20047;-93
2023/09/09 07:20:18;;;;;;;16.73;11.73;;;20.20;1.00;;;;;;6249694;23;20032;-94
2023/09/09 07:23:06;;;;;;;15.13;11.40;;;20.20;99.90;;;;;;6250467;23;20117;-94
2023/09/09 07:25:55;;;;;;;15.10;10.27;;;20.30;99.90;;;;;;6251311;23;20446;-94
2023/09/09 07:28:45;;;;;;;14.63;11.50;;;20.50;99.90;;;;;;6248413;23;20024;-95
2023/09/09 07:31:33;;;;;;;12.52;10.18;;;20.60;89.60;;;;;;6248887;23;20411;-94
2023/09/09 07:34:20;;;;;;;11.02;9.90;;;20.70;1.60;;;;;;6251124;23;20419;-94
2023/09/09 07:37:13;;;;;;;12.95;10.82;;;20.80;1.00;;;;;;6248428;23;20028;-92
2023/09/09 07:40:00;;;;;;;13.98;10.82;;;20.90;1.00;;;;;;6250608;23;20024;-95
2023/09/09 07:42:59;;;;;;;16.05;10.70;;;21.10;1.00;;;;;;6249238;23;20034;-94
2023/09/09 07:45:51;;;;;;;14.02;10.63;;;21.20;99.90;;;;;;6250729;23;20078;-92
2023/09/09 07:48:57;;;;;;;12.52;10.57;;;21.50;99.90;;;;;;6251885;23;20304;-94
2023/09/09 07:52:08;;;;;;;12.15;10.55;;;21.80;99.90;;;;;;6249526;23;20034;-92
2023/09/09 07:54:57;;;;;;;17.60;9.88;;;22.10;90.70;;;;;;6233004;23;20036;-94
2023/09/09 07:57:48;;;;;;;18.25;9.75;;;22.40;5.40;;;;;;6232602;23;20039;-92
2023/09/09 08:00:37;;;;;;;13.32;8.95;;;22.60;1.00;;;;;;6252735;23;20024;-94
2023/09/09 08:03:28;;;;;;;12.50;9.95;;;22.90;1.00;;;;;;6251136;23;20071;-94
2023/09/09 08:06:20;;;;;;;13.70;9.57;;;23.40;99.90;;;;;;6229656;23;20028;-92
2023/09/09 08:09:41;;;;;;;;;;;;;;;;;;;;;
2023/09/09 08:13:06;;;;;;;;;;;;;;;;;;;;;
2023/09/09 08:19:32;;;;;;;11.18;8.25;;;25.20;1.00;;;;;;6251970;23;20039;-94
2023/09/09 08:22:59;;;;;;;15.32;8.43;;;26.20;99.90;;;;;;6250783;23;20433;-92
2023/09/09 08:25:49;;;;;;;12.65;8.27;;;27.10;99.90;;;;;;6249210;23;20035;-93
2023/09/09 08:28:57;;;;;;;10.65;7.75;;;27.90;1.00;;;;;;6248858;23;20020;-93
2023/09/09 08:31:56;;;;;;;7.50;6.72;;;29.00;1.00;;;;;;6232109;23;20028;-94
2023/09/09 08:35:51;;;;;;;;;;;;;;;;;;;;;
2023/09/09 08:38:45;;;;;;;6.70;5.78;;;30.40;99.90;;;;;;6275377;22;20059;-88
2023/09/09 08:42:07;;;;;;;6.50;5.80;;;31.00;99.90;;;;;;6273517;22;20008;-87
2023/09/09 08:45:09;;;;;;;10.38;5.72;;;31.10;99.90;;;;;;6274115;22;20012;-88
2023/09/09 08:47:58;;;;;;;;;;;31.30;99.90;;;;;;6274320;22;20042;-88
2023/09/09 08:50:55;;;;;;;9.52;6.13;;;31.10;99.90;;;;;;6273865;22;19915;-94
2023/09/09 08:53:47;;;;;;;11.57;5.82;;;30.70;99.90;;;;;;6266220;23;20024;-92
2023/09/09 08:56:53;;;;;;;;;;;;;;;;;;;;;
2023/09/09 09:00:08;;;;;;;6.53;5.22;;;32.50;99.90;;;;;;6109723;23;20022;-92
2023/09/09 09:02:56;;;;;;;6.35;4.93;;;33.10;99.90;;;;;;6252895;23;20297;-92
2023/09/09 09:05:44;;;;;;;9.70;4.97;;;33.90;99.90;;;;;;6248011;23;20126;-84
2023/09/09 09:08:33;;;;;;;6.75;5.00;;;33.80;99.90;;;;;;6245142;23;20037;-84
2023/09/09 09:11:21;;;;;;;10.18;5.25;;;33.60;99.90;;;;;;6243370;23;20028;-85
2023/09/09 09:14:09;;;;;;;11.15;5.72;;;33.50;99.90;;;;;;6245895;23;20046;-84
2023/09/09 09:16:56;;;;;;;7.50;4.57;;;33.70;99.90;;;;;;6244924;23;20024;-84
2023/09/09 09:19:43;;;;;;;7.35;4.80;;;34.10;99.90;;;;;;6244821;23;20034;-84
2023/09/09 09:22:31;;;;;;;5.43;4.80;;;34.20;99.90;;;;;;6247186;23;20024;-84
2023/09/09 09:25:21;;;;;;;6.78;4.40;;;34.60;99.90;;;;;;6246274;23;20024;-83
2023/09/09 09:28:08;;;;;;;7.03;4.60;;;35.00;99.90;;;;;;6245338;23;20028;-83
2023/09/09 09:30:56;;;;;;;5.53;4.20;;;34.90;99.90;;;;;;6247251;23;20446;-85
2023/09/09 09:33:46;;;;;;;7.53;4.90;;;35.40;99.90;;;;;;6244093;23;20316;-86
2023/09/09 09:36:35;;;;;;;8.97;4.57;;;35.80;99.90;;;;;;6226878;22;20023;-83
2023/09/09 09:39:22;;;;;;;9.07;4.43;;;35.80;99.90;;;;;;6245103;23;20028;-82
2023/09/09 09:42:13;;;;;;;8.65;4.53;;;35.70;99.90;;;;;;6243435;23;20031;-85
2023/09/09 09:45:10;;;;;;;9.75;4.68;;;36.10;99.90;;;;;;6242933;23;20075;-85
2023/09/09 09:47:58;;;;;;;5.97;4.75;;;36.60;99.40;;;;;;6246912;23;20035;-83
2023/09/09 09:50:52;;;;;;;9.05;4.50;;;36.90;93.10;;;;;;6246568;23;20489;-85
2023/09/09 09:53:48;;;;;;;5.93;4.22;;;37.10;90.20;;;;;;6245011;23;20039;-84
2023/09/09 09:56:39;;;;;;;12.23;4.30;;;36.70;99.90;;;;;;6247202;23;20101;-84
2023/09/09 09:59:30;;;;;;;8.98;4.10;;;36.70;99.90;;;;;;6245429;23;20063;-84
2023/09/09 10:02:23;;;;;;;8.45;4.47;;;37.20;99.90;;;;;;6245876;23;20074;-85
2023/09/09 10:05:14;;;;;;;7.50;3.85;;;37.50;99.90;;;;;;6245707;23;20027;-86
2023/09/09 10:08:09;;;;;;;5.72;3.35;;;36.90;99.90;;;;;;6245469;23;20052;-85
2023/09/09 10:11:00;;;;;;;16.70;4.40;;;37.40;99.90;;;;;;6224933;23;20085;-86
2023/09/09 10:13:53;;;;;;;9.63;4.40;;;37.60;99.90;;;;;;6244869;23;20020;-84
2023/09/09 10:16:42;;;;;;;8.57;3.67;;;37.50;99.90;;;;;;6244819;23;20024;-83
2023/09/09 10:19:32;;;;;;;4.47;3.92;;;37.30;99.90;;;;;;6244597;23;20028;-83
2023/09/09 10:22:24;;;;;;;6.97;3.85;;;37.10;90.00;;;;;;6243822;23;20130;-83
2023/09/09 10:25:12;;;;;;;7.70;3.85;;;37.30;92.20;;;;;;6245816;23;20038;-83
2023/09/09 10:28:01;;;;;;;12.52;4.20;;;38.10;94.90;;;;;;6244438;23;20028;-85
2023/09/09 10:30:52;;;;;;;7.47;4.38;;;38.40;92.50;;;;;;6225279;23;20086;-83
2023/09/09 10:33:47;;;;;;;8.00;4.20;;;38.40;76.70;;;;;;6223764;23;20350;-84
2023/09/09 10:36:40;;;;;;;7.35;3.60;;;38.50;99.90;;;;;;6244286;23;20243;-83
2023/09/09 10:39:48;;;;;;;7.07;3.80;;;38.40;74.80;;;;;;6227542;23;20334;-84
2023/09/09 10:42:38;;;;;;;9.20;3.83;;;39.30;66.40;;;;;;6224229;23;20035;-84
2023/09/09 10:45:33;;;;;;;10.40;3.33;;;39.60;13.30;;;;;;6243394;23;20020;-84
2023/09/09 10:48:21;;;;;;;9.43;3.63;;;39.60;27.40;;;;;;6245187;23;20093;-85
2023/09/09 10:51:11;;;;;;;11.52;3.70;;;38.10;1.00;;;;;;6242758;23;20292;-85
2023/09/09 10:54:12;;;;;;;8.10;3.70;;;37.30;1.00;;;;;;6244726;23;20024;-84
2023/09/09 10:57:02;;;;;;;13.10;3.85;;;37.30;1.00;;;;;;6243568;23;20027;-85
2023/09/09 10:59:50;;;;;;;8.70;3.63;;;37.80;1.00;;;;;;6244776;23;20047;-85
2023/09/09 11:02:46;;;;;;;10.30;3.40;;;38.00;15.70;;;;;;6225139;23;20028;-84
2023/09/09 11:06:05;;;;;;;11.45;3.83;;;37.60;1.00;;;;;;6223476;23;20048;-85
2023/09/09 11:08:59;;;;;;;7.55;2.88;;;37.90;1.00;;;;;;6245145;23;20032;-85
2023/09/09 11:11:46;;;;;;;5.70;3.10;;;38.50;1.00;;;;;;6243299;23;20027;-85
2023/09/09 11:14:34;;;;;;;8.73;3.45;;;39.10;1.00;;;;;;6244076;23;20024;-86
2023/09/09 11:17:22;;;;;;;8.07;3.42;;;39.40;1.00;;;;;;6243502;23;20035;-84
2023/09/09 11:20:13;;;;;;;9.52;3.78;;;39.70;1.00;;;;;;6245472;23;20430;-85
2023/09/09 11:23:05;;;;;;;10.48;3.67;;;39.00;1.00;;;;;;6243778;23;20032;-85
2023/09/09 11:25:55;;;;;;;7.05;3.70;;;39.60;1.00;;;;;;6243666;23;20408;-84
2023/09/09 11:28:48;;;;;;;15.73;3.75;;;40.50;1.00;;;;;;6245266;23;20034;-84
2023/09/09 11:31:36;;;;;;;8.23;3.85;;;40.00;1.00;;;;;;6243012;23;20327;-84
2023/09/09 11:34:32;;;;;;;12.10;3.90;;;39.50;1.00;;;;;;6242963;23;20117;-85
2023/09/09 11:37:22;;;;;;;10.27;3.78;;;39.70;1.00;;;;;;6224864;23;20103;-81
2023/09/09 11:40:17;;;;;;;7.90;3.33;;;39.70;1.00;;;;;;6224338;23;20039;-86
2023/09/09 11:43:10;;;;;;;22.13;3.78;;;40.00;1.00;;;;;;6244622;23;20093;-84
2023/09/09 11:45:58;;;;;;;5.35;3.10;;;40.30;1.00;;;;;;6243811;23;20024;-85
2023/09/09 11:48:45;;;;;;;12.75;3.30;;;40.60;1.00;;;;;;6242857;23;20113;-84
2023/09/09 11:51:34;;;;;;;6.25;3.00;;;40.10;1.00;;;;;;6222818;23;20308;-85
2023/09/09 11:54:22;;;;;;;8.57;3.50;;;39.30;1.00;;;;;;6243385;23;20020;-85
2023/09/09 11:57:12;;;;;;;6.03;3.10;;;38.10;1.00;;;;;;6220583;23;20326;-84
2023/09/09 12:00:00;;;;;;;6.22;3.30;;;37.20;1.00;;;;;;6244815;23;20539;-84
2023/09/09 12:02:48;;;;;;;11.50;3.83;;;37.70;1.00;;;;;;6221164;23;20186;-82
2023/09/09 12:05:35;;;;;;;6.55;3.60;;;36.90;1.00;;;;;;6243978;23;20117;-82
2023/09/09 12:08:25;;;;;;;8.70;3.50;;;36.60;1.00;;;;;;6245192;23;20020;-84
2023/09/09 12:11:18;;;;;;;8.65;3.03;;;37.20;1.00;;;;;;6224040;23;20095;-82
2023/09/09 12:14:05;;;;;;;5.53;3.22;;;38.50;1.00;;;;;;6246887;23;20101;-84
2023/09/09 12:16:53;;;;;;;6.97;3.22;;;39.50;1.00;;;;;;6244918;23;20107;-83
2023/09/09 12:19:40;;;;;;;10.15;3.15;;;40.40;1.00;;;;;;6244719;23;20024;-84
2023/09/09 12:22:35;;;;;;;7.07;3.58;;;39.10;1.00;;;;;;6224701;23;20032;-84
2023/09/09 12:25:32;;;;;;;5.88;3.20;;;39.20;1.00;;;;;;6224828;23;20095;-85
2023/09/09 12:28:19;;;;;;;11.70;3.60;;;39.80;1.00;;;;;;6243706;23;20020;-83
2023/09/09 12:31:07;;;;;;;14.25;4.40;;;39.30;1.00;;;;;;6243814;23;20031;-85
2023/09/09 12:33:57;;;;;;;7.35;3.10;;;38.90;1.00;;;;;;6223751;23;20422;-84
2023/09/09 12:36:52;;;;;;;9.32;3.33;;;38.60;1.00;;;;;;6242732;23;20330;-84
2023/09/09 12:39:39;;;;;;;11.25;3.85;;;38.00;1.00;;;;;;6247894;23;20035;-86
2023/09/09 12:42:29;;;;;;;19.55;4.47;;;38.90;1.00;;;;;;6248236;23;20099;-86
2023/09/09 12:45:21;;;;;;;8.50;3.55;;;38.90;1.00;;;;;;6243742;23;20035;-83
2023/09/09 12:48:11;;;;;;;9.73;3.92;;;38.00;1.00;;;;;;6244174;23;20020;-82
2023/09/09 12:50:58;;;;;;;10.48;3.97;;;37.80;1.00;;;;;;6242608;23;20074;-83
2023/09/09 12:53:46;;;;;;;4.05;3.20;;;38.80;1.00;;;;;;6242139;23;20031;-84
2023/09/09 12:56:33;;;;;;;6.10;3.30;;;40.20;1.00;;;;;;6243109;23;20028;-84
2023/09/09 12:59:22;;;;;;;8.73;3.25;;;41.80;1.00;;;;;;6246011;23;20324;-85
2023/09/09 13:02:10;;;;;;;5.57;3.40;;;42.00;1.00;;;;;;6242952;23;20133;-84
2023/09/09 13:04:57;;;;;;;7.32;3.35;;;41.50;1.00;;;;;;6245027;22;20345;-85
2023/09/09 13:07:50;;;;;;;7.78;4.10;;;41.30;1.00;;;;;;6244834;23;20035;-84
2023/09/09 13:10:37;;;;;;;8.38;3.75;;;40.80;1.00;;;;;;6243485;23;20031;-84
2023/09/09 13:13:25;;;;;;;7.55;4.10;;;40.40;1.00;;;;;;6244098;23;20032;-84
2023/09/09 13:16:13;;;;;;;6.20;3.60;;;39.60;1.00;;;;;;6244470;23;20159;-84
2023/09/09 13:19:03;;;;;;;6.22;4.13;;;40.60;1.00;;;;;;6243927;23;20023;-85
2023/09/09 13:21:50;;;;;;;6.75;3.63;;;41.20;1.00;;;;;;6243226;23;20035;-84
2023/09/09 13:24:37;;;;;;;6.15;4.22;;;41.30;1.00;;;;;;6244612;23;20047;-84
2023/09/09 13:27:26;;;;;;;5.88;3.40;;;41.90;1.00;;;;;;6246687;23;20028;-85
2023/09/09 13:30:15;;;;;;;12.30;4.28;;;42.30;1.00;;;;;;6246948;23;20034;-85
2023/09/09 13:33:05;;;;;;;8.13;3.95;;;41.60;1.00;;;;;;6246179;23;20024;-83
2023/09/09 13:35:53;;;;;;;6.75;3.85;;;41.40;1.00;;;;;;6245884;23;20099;-84
2023/09/09 13:38:40;;;;;;;11.95;4.25;;;41.00;1.00;;;;;;6248166;23;20024;-83
2023/09/09 13:41:28;;;;;;;10.07;4.00;;;40.50;1.00;;;;;;6248118;23;20319;-85
2023/09/09 13:44:16;;;;;;;6.10;3.75;;;41.00;1.00;;;;;;6225781;23;20109;-85
2023/09/09 13:47:04;;;;;;;8.50;4.60;;;40.90;1.00;;;;;;6225005;23;20095;-83
2023/09/09 13:49:51;;;;;;;7.70;3.92;;;40.50;1.00;;;;;;6245140;23;20331;-82
2023/09/09 13:52:38;;;;;;;8.63;4.38;;;39.90;1.00;;;;;;6246962;23;20090;-82
2023/09/09 13:55:28;;;;;;;6.47;3.75;;;38.60;1.00;;;;;;6243382;23;20043;-85
2023/09/09 13:58:17;;;;;;;8.80;5.15;;;38.30;1.00;;;;;;6248233;22;20055;-84
2023/09/09 14:01:05;;;;;;;8.90;4.40;;;38.00;1.00;;;;;;6247182;23;20020;-83
2023/09/09 14:03:53;;;;;;;5.97;4.28;;;38.20;1.00;;;;;;6244860;23;20032;-86
2023/09/09 14:06:42;;;;;;;8.80;4.15;;;38.30;1.00;;;;;;6246917;23;20476;-85
2023/09/09 14:09:30;;;;;;;8.40;4.10;;;38.70;1.00;;;;;;6244780;23;20024;-86
2023/09/09 14:12:21;;;;;;;11.95;4.55;;;38.90;1.00;;;;;;6244075;23;20396;-84
2023/09/09 14:15:11;;;;;;;8.45;4.07;;;38.70;1.00;;;;;;6243953;23;20422;-84
2023/09/09 14:17:58;;;;;;;7.78;4.22;;;38.00;1.00;;;;;;6242297;23;20039;-84
2023/09/09 14:20:46;;;;;;;11.82;4.90;;;37.20;1.00;;;;;;6246529;23;20121;-84
2023/09/09 14:23:36;;;;;;;10.70;4.88;;;37.60;1.00;;;;;;6221058;23;20091;-86
2023/09/09 14:26:23;;;;;;;9.52;4.30;;;38.10;1.00;;;;;;6243526;23;20451;-83
2023/09/09 14:29:13;;;;;;;8.40;4.30;;;38.10;1.00;;;;;;6244171;23;20024;-84
2023/09/09 14:32:00;;;;;;;8.25;4.53;;;38.10;1.00;;;;;;6244404;23;20024;-83
2023/09/09 14:34:47;;;;;;;8.50;4.40;;;37.90;1.00;;;;;;6225510;23;20078;-83
2023/09/09 14:37:34;;;;;;;10.10;4.10;;;38.10;1.00;;;;;;6246417;23;20024;-84
2023/09/09 14:40:22;;;;;;;10.45;3.95;;;37.60;1.00;;;;;;6223969;23;20042;-85
2023/09/09 14:43:09;;;;;;;7.57;3.97;;;38.00;1.00;;;;;;6246553;22;20024;-83
2023/09/09 14:45:58;;;;;;;9.45;4.25;;;37.70;1.00;;;;;;6246252;23;20028;-83
2023/09/09 14:49:00;;;;;;;11.50;4.43;;;38.10;1.00;;;;;;6245858;23;20035;-84
2023/09/09 14:51:47;;;;;;;;;;;37.70;1.00;;;;;;6225146;23;20035;-83
2023/09/09 14:54:38;;;;;;;5.75;3.58;;;38.10;1.00;;;;;;6244727;23;19923;-83